Time;durP1;ratioP1;P1;durP2;ratioP2;P2;SDS_P1;SDS_P2;PMS_P1;PMS_P2;Temp;Humidity;BMP_temperature;BMP_pressure;BME280_temperature;BME280_humidity;BME280_pressure;Samples;Min_cycle;Max_cycle;Signal;HPM_P1;HPM_P2
2023/10/19 00:01:11;;;;;;;9.75;8.75;;;;;;;6.50;100.00;96850.38;1224968;75;2918800;-73
2023/10/19 00:03:44;;;;;;;9.05;8.20;;;;;;;6.61;100.00;96847.88;1225049;75;2936425;-73
2023/10/19 00:06:14;;;;;;;9.75;8.85;;;;;;;6.51;100.00;96842.97;1225047;75;2921860;-76
2023/10/19 00:08:50;;;;;;;15.40;13.80;;;;;;;6.02;100.00;96845.06;1224937;75;2884439;-76
2023/10/19 00:11:22;;;;;;;13.05;11.70;;;;;;;6.47;100.00;96845.88;1222814;75;2946935;-76
2023/10/19 00:13:57;;;;;;;11.25;10.25;;;;;;;6.42;100.00;96841.06;1225248;75;2923238;-74
2023/10/19 00:16:35;;;;;;;11.90;10.70;;;;;;;6.37;100.00;96834.34;1221897;75;3084954;-72
2023/10/19 00:19:05;;;;;;;9.10;8.20;;;;;;;6.53;100.00;96840.53;1224852;75;2918973;-74
2023/10/19 00:21:50;;;;;;;12.40;11.10;;;;;;;6.22;100.00;96838.25;1225878;75;2926502;-76
2023/10/19 00:24:23;;;;;;;11.55;10.45;;;;;;;6.26;100.00;96834.13;1224749;75;2923850;-77
2023/10/19 00:26:56;;;;;;;10.50;9.50;;;;;;;6.53;100.00;96829.66;1225273;75;2918627;-76
2023/10/19 00:29:40;;;;;;;10.05;9.05;;;;;;;6.34;100.00;96823.63;1222151;75;3087853;-75
2023/10/19 00:32:14;;;;;;;10.45;9.45;;;;;;;6.53;100.00;96822.25;1225321;75;2921114;-75
2023/10/19 00:34:51;;;;;;;8.65;7.85;;;;;;;6.59;100.00;96814.16;1212611;75;3914741;-76
2023/10/19 00:37:26;;;;;;;8.10;7.35;;;;;;;6.62;100.00;96805.09;1226669;75;2914847;-73
2023/10/19 00:40:15;;;;;;;8.00;7.30;;;;;;;6.63;100.00;96790.25;1225037;75;2913202;-73
2023/10/19 00:42:52;;;;;;;;;;;;;;;6.58;100.00;96790.94;1223387;75;3030275;-71
2023/10/19 00:45:26;;;;;;;7.65;6.95;;;;;;;6.67;100.00;96781.94;1225289;75;2925623;-74
2023/10/19 00:48:00;;;;;;;8.10;7.30;;;;;;;6.69;100.00;96779.50;1225140;75;2931120;-75
2023/10/19 00:50:32;;;;;;;6.80;6.10;;;;;;;6.74;100.00;96779.56;1224759;75;2918475;-75
2023/10/19 00:53:08;;;;;;;7.45;6.75;;;;;;;6.63;100.00;96765.03;1224636;75;2923527;-74
2023/10/19 00:55:45;;;;;;;8.90;7.95;;;;;;;6.37;100.00;96776.50;1224423;75;2920939;-70
2023/10/19 00:58:22;;;;;;;10.40;9.40;;;;;;;6.48;100.00;96765.81;1219422;75;3103457;-75
2023/10/19 01:00:55;;;;;;;13.20;11.90;;;;;;;6.26;100.00;96762.72;1224155;75;2924858;-71
2023/10/19 01:03:32;;;;;;;10.25;9.25;;;;;;;6.54;100.00;96758.50;1225074;75;2922056;-74
2023/10/19 01:06:09;;;;;;;9.30;8.40;;;;;;;6.63;100.00;96757.63;1221270;75;3060447;-71
2023/10/19 01:08:44;;;;;;;8.15;7.35;;;;;;;6.68;100.00;96735.22;1221211;75;3010525;-74
2023/10/19 01:11:21;;;;;;;6.95;6.35;;;;;;;6.76;100.00;96741.03;1224484;75;2923369;-75
2023/10/19 01:13:54;;;;;;;7.15;6.45;;;;;;;6.63;100.00;96754.16;1224289;83;2918580;-75
2023/10/19 01:16:27;;;;;;;9.85;8.55;;;;;;;6.23;100.00;96739.94;1224233;75;2925111;-71
2023/10/19 01:18:59;;;;;;;10.55;9.55;;;;;;;6.43;100.00;96752.13;1222693;75;2963605;-76
2023/10/19 01:21:38;;;;;;;10.75;9.75;;;;;;;6.25;100.00;96742.94;1224535;75;2920314;-74
2023/10/19 01:24:17;;;;;;;;;;;;;;;6.52;100.00;96736.47;1222467;75;3099767;-73
2023/10/19 01:26:49;;;;;;;9.05;8.25;;;;;;;6.49;100.00;96736.66;1224186;75;2941021;-75
2023/10/19 01:29:26;;;;;;;8.40;7.50;;;;;;;6.50;100.00;96732.72;1223806;75;2918039;-73
2023/10/19 01:32:06;;;;;;;10.80;9.70;;;;;;;6.23;100.00;96728.31;1224954;75;2919574;-75
2023/10/19 01:34:38;;;;;;;11.80;10.70;;;;;;;6.19;100.00;96726.53;1224846;75;2934954;-76
2023/10/19 01:37:12;;;;;;;10.85;9.75;;;;;;;6.37;100.00;96717.47;1224435;75;2921792;-74
2023/10/19 01:39:47;;;;;;;8.20;7.40;;;;;;;6.27;100.00;96707.88;1224064;75;2921397;-76
2023/10/19 01:42:17;;;;;;;8.50;7.70;;;;;;;6.33;100.00;96711.44;1224721;75;2919401;-75
2023/10/19 01:44:50;;;;;;;13.75;12.40;;;;;;;5.94;100.00;96702.63;1195887;75;4895687;-74
2023/10/19 01:47:22;;;;;;;14.65;13.15;;;;;;;6.02;100.00;96694.88;1223082;75;2929119;-74
2023/10/19 01:49:55;;;;;;;11.75;10.55;;;;;;;6.24;100.00;96699.94;1224868;75;2919259;-73
2023/10/19 01:52:24;;;;;;;9.75;8.85;;;;;;;6.11;100.00;96686.63;1225531;75;2922259;-72
2023/10/19 01:55:07;;;;;;;9.50;8.60;;;;;;;5.98;100.00;96693.09;1224919;75;2860035;-74
2023/10/19 01:57:38;;;;;;;17.05;15.35;;;;;;;5.80;100.00;96671.53;1223372;75;2963258;-73
2023/10/19 02:00:22;;;;;;;13.15;11.90;;;;;;;6.01;100.00;96685.97;1223705;75;2920784;-77
2023/10/19 02:02:52;;;;;;;11.30;10.20;;;;;;;6.07;100.00;96673.22;1222507;75;2963555;-72
2023/10/19 02:05:33;;;;;;;11.90;10.70;;;;;;;5.82;100.00;96690.03;1224892;75;2876694;-72
2023/10/19 02:08:04;;;;;;;11.45;10.35;;;;;;;5.84;100.00;96676.75;1223960;75;2924909;-74
2023/10/19 02:10:41;;;;;;;9.50;8.60;;;;;;;5.95;100.00;96675.00;1224395;75;2914213;-73
2023/10/19 02:13:15;;;;;;;8.40;7.60;;;;;;;6.08;100.00;96663.84;1225315;75;2920637;-74
2023/10/19 02:15:49;;;;;;;12.20;10.70;;;;;;;5.82;100.00;96660.19;1225176;75;2920748;-73
2023/10/19 02:18:19;;;;;;;12.30;11.20;;;;;;;5.67;100.00;96657.47;1224528;75;2937255;-75
2023/10/19 02:20:52;;;;;;;15.90;14.35;;;;;;;5.43;100.00;96658.25;1224440;75;2860309;-75
2023/10/19 02:23:25;;;;;;;12.80;11.60;;;;;;;5.73;100.00;96658.31;1224030;75;2919755;-75
2023/10/19 02:25:57;;;;;;;9.85;8.95;;;;;;;5.82;100.00;96663.66;1223779;75;2915667;-73
2023/10/19 02:28:33;;;;;;;10.45;9.45;;;;;;;5.61;100.00;96664.75;1225359;75;2922884;-70
2023/10/19 02:31:11;;;;;;;10.00;8.30;;;;;;;5.83;100.00;96653.53;1223532;75;2921596;-74
2023/10/19 02:33:46;;;;;;;9.80;8.90;;;;;;;5.64;100.00;96652.97;1222554;75;3015600;-72
2023/10/19 02:36:16;;;;;;;10.30;9.40;;;;;;;5.52;100.00;96650.03;1222901;75;2933550;-75
2023/10/19 02:38:52;;;;;;;9.75;8.85;;;;;;;5.70;100.00;96643.72;1209522;75;4101599;-75
2023/10/19 02:41:26;;;;;;;9.20;8.30;;;;;;;5.63;100.00;96637.88;1225546;75;2924934;-74
2023/10/19 02:44:09;;;;;;;7.95;7.25;;;;;;;5.74;100.00;96622.53;1224701;75;2924613;-73
2023/10/19 02:46:41;;;;;;;9.10;8.25;;;;;;;5.51;100.00;96621.41;1224292;75;2921270;-75
2023/10/19 02:49:18;;;;;;;11.75;10.60;;;;;;;5.29;100.00;96629.91;1222223;75;3008973;-74
2023/10/19 02:51:53;;;;;;;10.60;9.60;;;;;;;5.41;100.00;96624.66;1223368;75;2981446;-75
2023/10/19 02:54:29;;;;;;;12.75;11.55;;;;;;;5.35;100.00;96624.56;1224345;75;2924736;-74
2023/10/19 02:57:06;;;;;;;10.60;9.60;;;;;;;5.40;100.00;96621.19;1224224;75;2926538;-75
2023/10/19 02:59:37;;;;;;;10.20;9.20;;;;;;;5.37;100.00;96610.53;1225205;75;2919414;-74
2023/10/19 03:02:17;;;;;;;9.40;8.50;;;;;;;5.39;100.00;96608.84;1224960;75;2933524;-76
2023/10/19 03:04:47;;;;;;;8.45;7.60;;;;;;;5.48;100.00;96599.88;1212674;75;3836514;-74
2023/10/19 03:07:21;;;;;;;8.05;7.25;;;;;;;5.42;100.00;96609.88;1224793;75;2921082;-72
2023/10/19 03:09:53;;;;;;;6.95;6.25;;;;;;;5.44;100.00;96612.88;1222186;75;2940501;-76
2023/10/19 03:12:30;;;;;;;9.55;8.10;;;;;;;5.29;100.00;96613.63;1224969;75;2923896;-77
2023/10/19 03:15:00;;;;;;;8.70;7.90;;;;;;;5.37;100.00;96608.56;1221921;75;3108373;-74
2023/10/19 03:17:33;;;;;;;9.60;8.60;;;;;;;5.20;100.00;96610.97;1225205;75;2922024;-72
2023/10/19 03:20:06;;;;;;;8.15;7.35;;;;;;;5.31;100.00;96610.41;1223662;75;2924215;-71
2023/10/19 03:22:38;;;;;;;9.10;8.20;;;;;;;5.20;100.00;96608.25;1224699;75;2926626;-77
2023/10/19 03:25:49;;;;;;;10.00;7.90;;;;;;;5.26;100.00;96598.25;1224230;75;2927231;-75
2023/10/19 03:28:11;;;;;;;8.60;7.75;;;;;;;5.33;100.00;96589.75;1224028;75;2918717;-77
2023/10/19 03:30:41;;;;;;;7.75;6.95;;;;;;;5.37;100.00;96575.25;1219306;75;3036792;-74
2023/10/19 03:33:14;;;;;;;6.65;6.05;;;;;;;5.29;100.00;96581.06;1224652;75;2880952;-73
2023/10/19 03:35:46;;;;;;;7.30;6.30;;;;;;;5.18;100.00;96582.81;1224412;75;2922844;-75
2023/10/19 03:38:22;;;;;;;9.70;8.80;;;;;;;4.92;100.00;96577.88;1224557;75;2921054;-73
2023/10/19 03:40:59;;;;;;;12.85;11.55;;;;;;;4.96;100.00;96572.31;1223260;75;2928084;-72
2023/10/19 03:43:38;;;;;;;10.90;9.90;;;;;;;5.18;100.00;96563.81;1224735;75;2928177;-75
2023/10/19 03:46:22;;;;;;;9.90;8.90;;;;;;;5.01;100.00;96558.09;1224512;75;2979039;-72
2023/10/19 03:48:58;;;;;;;9.75;8.85;;;;;;;5.16;100.00;96572.41;1227278;75;2925055;-70
2023/10/19 03:51:39;;;;;;;7.85;7.15;;;;;;;5.15;100.00;96578.31;1225137;75;2958554;-74
2023/10/19 03:54:22;;;;;;;7.60;6.90;;;;;;;5.19;100.00;96576.16;1227032;75;2924575;-75
2023/10/19 03:56:55;;;;;;;7.80;7.10;;;;;;;5.18;100.00;96575.41;1212419;75;4038694;-76
2023/10/19 03:59:33;;;;;;;8.00;7.20;;;;;;;4.91;100.00;96574.44;1226387;75;2919377;-75
2023/10/19 04:02:10;;;;;;;8.50;7.60;;;;;;;4.91;100.00;96576.41;1223497;75;2934849;-73
2023/10/19 04:04:43;;;;;;;8.40;7.50;;;;;;;4.78;100.00;96556.91;1227008;75;2928556;-74
2023/10/19 04:07:20;;;;;;;8.70;7.90;;;;;;;4.85;100.00;96549.16;1227011;75;2924537;-74
2023/10/19 04:10:04;;;;;;;7.90;7.10;;;;;;;4.86;100.00;96549.94;1224472;75;2939919;-75
2023/10/19 04:12:38;;;;;;;9.65;8.75;;;;;;;4.89;100.00;96535.44;1223812;75;2924482;-71
2023/10/19 04:15:16;;;;;;;8.80;7.90;;;;;;;4.93;100.00;96543.38;1223708;75;2925964;-73
2023/10/19 04:17:50;;;;;;;8.90;8.00;;;;;;;5.01;100.00;96539.84;1225253;75;2926108;-75
2023/10/19 04:20:41;;;;;;;8.75;7.95;;;;;;;5.00;100.00;96541.06;1223200;75;2928601;-74
2023/10/19 04:23:15;;;;;;;10.55;9.50;;;;;;;5.00;100.00;96529.47;1224050;75;2934860;-72
2023/10/19 04:25:48;;;;;;;12.90;10.20;;;;;;;4.87;100.00;96529.72;1219847;75;3112914;-73
2023/10/19 04:28:30;;;;;;;11.10;10.00;;;;;;;4.94;100.00;96521.22;1224644;75;2923409;-74
2023/10/19 04:31:06;;;;;;;10.20;9.15;;;;;;;4.81;100.00;96518.78;1223107;75;2928243;-73
2023/10/19 04:33:38;;;;;;;8.80;8.00;;;;;;;4.96;100.00;96526.19;1218948;75;3053361;-72
2023/10/19 04:36:11;;;;;;;8.15;7.35;;;;;;;4.98;100.00;96515.59;1221939;75;2934245;-71
2023/10/19 04:38:45;;;;;;;14.30;12.90;;;;;;;4.64;100.00;96513.03;1222495;75;3027080;-72
2023/10/19 04:41:18;;;;;;;15.10;13.60;;;;;;;4.80;100.00;96519.25;1221689;75;2917985;-75
2023/10/19 04:43:52;;;;;;;12.70;11.40;;;;;;;4.89;100.00;96505.59;1223991;75;2922237;-74
2023/10/19 04:46:29;;;;;;;11.20;10.10;;;;;;;4.97;100.00;96514.13;1221123;75;3032561;-74
2023/10/19 04:49:02;;;;;;;16.40;14.70;;;;;;;4.62;100.00;96506.59;1223709;75;2934168;-74
2023/10/19 04:51:38;;;;;;;14.70;13.20;;;;;;;4.85;100.00;96505.78;1223830;75;2931425;-75
2023/10/19 04:54:11;;;;;;;16.00;14.30;;;;;;;4.82;100.00;96495.88;1223920;75;2924190;-74
2023/10/19 04:56:43;;;;;;;14.30;12.80;;;;;;;4.74;100.00;96499.41;1224709;75;2929826;-77
2023/10/19 04:59:16;;;;;;;16.15;13.85;;;;;;;4.84;100.00;96498.88;1223717;75;2918950;-74
2023/10/19 05:01:51;;;;;;;17.95;15.95;;;;;;;4.80;100.00;96492.13;1223072;75;2926478;-73
2023/10/19 05:04:24;;;;;;;14.50;13.00;;;;;;;4.67;100.00;96487.72;1221203;75;3033914;-72
2023/10/19 05:06:57;;;;;;;14.10;12.60;;;;;;;4.78;100.00;96470.91;1224735;75;2920543;-75
2023/10/19 05:09:29;;;;;;;12.65;11.35;;;;;;;4.85;100.00;96464.38;1224143;75;2925184;-74
2023/10/19 05:12:02;;;;;;;13.05;11.60;;;;;;;4.77;100.00;96474.81;1224233;75;2925478;-73
2023/10/19 05:14:35;;;;;;;12.65;11.35;;;;;;;4.63;100.00;96480.97;1222463;75;2947390;-73
2023/10/19 05:17:12;;;;;;;14.25;12.75;;;;;;;4.59;100.00;96472.25;1224454;75;2919445;-71
2023/10/19 05:19:44;;;;;;;11.40;10.30;;;;;;;4.86;100.00;96469.31;1221772;75;2923856;-77
2023/10/19 05:22:18;;;;;;;14.05;12.50;;;;;;;4.71;100.00;96476.69;1224195;75;2922857;-72
2023/10/19 05:24:51;;;;;;;10.70;9.60;;;;;;;4.91;100.00;96474.09;1224752;75;2927063;-74
2023/10/19 05:27:23;;;;;;;11.05;9.95;;;;;;;4.81;100.00;96478.13;1221005;75;3060900;-74
2023/10/19 05:29:56;;;;;;;9.65;8.75;;;;;;;4.89;100.00;96464.94;1222601;75;2914890;-72
2023/10/19 05:32:31;;;;;;;9.50;8.60;;;;;;;4.79;100.00;96471.66;1222271;75;2975261;-73
2023/10/19 05:35:04;;;;;;;13.95;12.55;;;;;;;4.79;100.00;96466.97;1220241;75;3073964;-74
2023/10/19 05:37:37;;;;;;;12.75;11.45;;;;;;;4.94;100.00;96458.13;1224057;75;2922691;-75
2023/10/19 05:40:14;;;;;;;11.65;10.50;;;;;;;4.83;100.00;96458.66;1224373;75;2921754;-69
2023/10/19 05:42:47;;;;;;;13.35;12.05;;;;;;;4.70;100.00;96461.63;1222995;75;2930152;-74
2023/10/19 05:45:20;;;;;;;16.05;14.35;;;;;;;4.93;100.00;96473.66;1223655;75;2926802;-71
2023/10/19 05:47:55;;;;;;;14.55;13.05;;;;;;;4.79;100.00;96469.69;1223801;75;2930332;-72
2023/10/19 05:50:28;;;;;;;13.95;12.45;;;;;;;4.91;100.00;96460.53;1222951;75;2924910;-74
2023/10/19 05:53:01;;;;;;;17.10;15.40;;;;;;;4.82;100.00;96460.63;1223547;75;2921283;-73
2023/10/19 05:55:35;;;;;;;17.25;15.45;;;;;;;5.04;100.00;96460.25;1222650;75;2935871;-75
2023/10/19 05:58:08;;;;;;;16.25;14.65;;;;;;;5.15;100.00;96464.38;1220151;75;3090830;-73
2023/10/19 06:00:41;;;;;;;16.70;14.60;;;;;;;5.20;100.00;96458.31;1225506;75;2921814;-70
2023/10/19 06:03:17;;;;;;;12.15;10.95;;;;;;;5.40;100.00;96458.38;1201035;75;4810943;-71
2023/10/19 06:05:49;;;;;;;15.15;13.55;;;;;;;5.26;100.00;96459.88;1224217;75;2920197;-75
2023/10/19 06:08:22;;;;;;;12.20;11.00;;;;;;;5.59;100.00;96469.00;1220208;75;3109465;-75
2023/10/19 06:10:56;;;;;;;11.80;10.70;;;;;;;5.66;100.00;96461.22;1220036;75;3114326;-73
2023/10/19 06:13:29;;;;;;;11.30;10.20;;;;;;;5.79;100.00;96452.00;1221794;75;3092892;-73
2023/10/19 06:16:03;;;;;;;9.80;8.80;;;;;;;6.02;100.00;96453.09;1223907;75;2933122;-73
2023/10/19 06:18:38;;;;;;;10.00;9.05;;;;;;;6.19;100.00;96465.66;1222014;75;2925877;-74
2023/10/19 06:21:12;;;;;;;11.80;10.60;;;;;;;6.33;100.00;96455.22;1220852;75;3049204;-75
2023/10/19 06:23:44;;;;;;;9.55;8.55;;;;;;;6.63;100.00;96453.06;1224292;75;2924201;-74
2023/10/19 06:26:17;;;;;;;10.65;9.55;;;;;;;6.94;100.00;96459.81;1222500;75;2921560;-74
2023/10/19 06:28:50;;;;;;;8.65;7.05;;;;;;;8.13;100.00;96442.31;1224115;75;2925926;-71
2023/10/19 06:31:23;;;;;;;11.75;10.55;;;;;;;8.65;100.00;96444.75;1223470;75;2923037;-76
2023/10/19 06:34:00;;;;;;;12.00;10.80;;;;;;;9.22;100.00;96448.34;1223475;75;2923982;-72
2023/10/19 06:36:33;;;;;;;14.85;13.35;;;;;;;8.48;100.00;96444.72;1224101;75;2923929;-73
2023/10/19 06:39:07;;;;;;;12.40;11.10;;;;;;;8.89;100.00;96436.88;1221969;75;2934441;-74
2023/10/19 06:41:40;;;;;;;10.85;9.75;;;;;;;9.39;100.00;96449.81;1222171;67;2980716;-74
2023/10/19 06:44:13;;;;;;;9.55;8.65;;;;;;;11.06;86.09;96440.06;1224152;75;2936618;-73
2023/10/19 06:46:46;;;;;;;11.35;10.25;;;;;;;11.58;81.52;96444.66;1222387;75;2928882;-73
2023/10/19 06:49:21;;;;;;;9.65;8.50;;;;;;;13.51;72.95;96438.28;1224201;75;2926587;-77
2023/10/19 06:51:54;;;;;;;15.90;14.30;;;;;;;13.13;72.64;96425.38;1222463;75;3008252;-75
2023/10/19 06:54:27;;;;;;;12.90;11.50;;;;;;;16.33;61.59;96433.63;1224098;75;2922704;-76
2023/10/19 06:57:02;;;;;;;11.75;10.50;;;;;;;16.32;61.86;96414.84;1224791;75;2929487;-70
2023/10/19 06:59:35;;;;;;;11.15;9.80;;;;;;;16.72;59.90;96417.97;1223690;75;2926442;-74
2023/10/19 07:02:08;;;;;;;9.50;8.30;;;;;;;17.97;55.78;96414.81;1223986;75;2927761;-75
2023/10/19 07:04:43;;;;;;;9.95;8.85;;;;;;;17.93;55.19;96417.94;1224008;75;2927994;-72
2023/10/19 07:07:16;;;;;;;11.50;9.70;;;;;;;16.99;56.29;96434.28;1224217;75;2919869;-75
2023/10/19 07:09:48;;;;;;;11.50;9.70;;;;;;;18.93;54.61;96425.97;1224272;75;2930313;-74
2023/10/19 07:12:21;;;;;;;11.95;9.85;;;;;;;19.21;52.30;96413.75;1216002;75;3091788;-76
2023/10/19 07:14:54;;;;;;;11.10;9.50;;;;;;;19.23;52.05;96407.66;1220736;75;3115377;-73
2023/10/19 07:17:27;;;;;;;9.85;8.80;;;;;;;19.76;50.79;96417.63;1223080;75;2918173;-75
2023/10/19 07:20:05;;;;;;;9.55;7.40;;;;;;;21.68;47.90;96416.03;1224144;75;2930885;-77
2023/10/19 07:22:39;;;;;;;9.45;8.45;;;;;;;22.07;46.17;96415.38;1223893;75;2921842;-75
2023/10/19 07:25:13;;;;;;;8.05;7.05;;;;;;;20.97;47.86;96425.25;1222453;75;2925727;-73
2023/10/19 07:27:46;;;;;;;10.25;7.30;;;;;;;18.94;51.50;96419.09;1222002;75;2968670;-77
2023/10/19 07:30:21;;;;;;;7.95;6.90;;;;;;;19.36;50.19;96424.00;1222981;75;2918100;-74
2023/10/19 07:32:58;;;;;;;9.50;8.30;;;;;;;21.18;47.18;96405.25;1224489;75;2957012;-76
2023/10/19 07:35:37;;;;;;;18.55;9.50;;;;;;;18.44;51.33;96416.16;1224877;75;2926924;-75
2023/10/19 07:38:10;;;;;;;12.60;9.05;;;;;;;20.42;48.45;96396.59;1224317;75;2922066;-70
2023/10/19 07:40:43;;;;;;;13.60;10.65;;;;;;;20.20;48.71;96392.78;1223780;75;2925754;-76
2023/10/19 07:43:16;;;;;;;9.60;8.60;;;;;;;22.71;44.32;96385.16;1223991;75;2920409;-78
2023/10/19 07:45:48;;;;;;;15.70;11.25;;;;;;;19.56;49.33;96381.31;1224019;75;2925539;-74
2023/10/19 07:48:21;;;;;;;13.85;9.85;;;;;;;19.14;50.43;96389.56;1222466;75;2918892;-72
2023/10/19 07:50:57;;;;;;;12.30;9.90;;;;;;;19.94;49.40;96377.47;1222974;75;2929892;-78
2023/10/19 07:53:30;;;;;;;8.20;6.85;;;;;;;24.22;43.85;96368.75;1222406;75;2928214;-73
2023/10/19 07:56:03;;;;;;;8.45;6.40;;;;;;;22.55;43.67;96384.75;1220163;75;3111849;-75
2023/10/19 07:58:36;;;;;;;10.45;7.25;;;;;;;23.44;43.09;96382.47;1221403;75;2925703;-74
2023/10/19 08:01:08;;;;;;;12.00;9.50;;;;;;;18.71;50.71;96391.47;1219756;75;2965139;-75
2023/10/19 08:03:41;;;;;;;14.65;9.30;;;;;;;18.16;53.78;96386.69;1222814;75;2922089;-75
2023/10/19 08:06:16;;;;;;;10.25;8.50;;;;;;;18.29;54.48;96395.50;1222586;75;2918155;-76
2023/10/19 08:08:50;;;;;;;11.85;8.35;;;;;;;18.83;54.08;96375.16;1224687;75;2920418;-76
2023/10/19 08:11:22;;;;;;;9.25;8.25;;;;;;;17.62;56.32;96389.53;1224000;75;2923090;-76
2023/10/19 08:13:55;;;;;;;6.85;5.80;;;;;;;19.43;52.07;96372.53;1222866;75;2923948;-74
2023/10/19 08:16:28;;;;;;;8.40;7.15;;;;;;;19.06;53.86;96372.25;1224550;75;2922548;-76
2023/10/19 08:19:01;;;;;;;6.05;5.30;;;;;;;20.08;50.91;96368.81;1223787;75;2926452;-72
2023/10/19 08:21:37;;;;;;;6.25;5.55;;;;;;;19.43;52.73;96364.22;1221336;75;3088422;-76
2023/10/19 08:24:13;;;;;;;6.80;4.80;;;;;;;20.20;50.88;96358.66;1221409;75;3105186;-77
2023/10/19 08:26:46;;;;;;;7.60;4.45;;;;;;;20.25;50.93;96348.63;1224761;75;2921720;-78
2023/10/19 08:29:19;;;;;;;7.15;6.25;;;;;;;19.05;52.69;96348.59;1222993;75;2923303;-79
2023/10/19 08:31:52;;;;;;;5.80;5.20;;;;;;;20.16;51.28;96344.47;1223326;75;2923453;-77
2023/10/19 08:34:25;;;;;;;5.45;4.60;;;;;;;20.06;51.28;96354.75;1223553;75;2934518;-77
2023/10/19 08:37:00;;;;;;;4.50;4.10;;;;;;;20.21;51.81;96355.31;1222526;75;2931949;-76
2023/10/19 08:39:36;;;;;;;4.20;3.55;;;;;;;20.60;51.29;96352.09;1223962;75;2929202;-76
2023/10/19 08:42:10;;;;;;;5.90;4.95;;;;;;;20.13;51.58;96340.78;1224117;75;2918083;-78
2023/10/19 08:44:43;;;;;;;6.70;5.60;;;;;;;19.29;53.07;96336.00;1223317;75;2931558;-73
2023/10/19 08:47:15;;;;;;;5.90;4.75;;;;;;;20.03;52.27;96353.13;1223766;75;2926175;-76
2023/10/19 08:49:48;;;;;;;5.90;3.80;;;;;;;19.94;53.22;96343.38;1223370;75;2923487;-75
2023/10/19 08:52:27;;;;;;;8.15;6.90;;;;;;;17.80;56.88;96363.53;1222314;75;2988231;-75
2023/10/19 08:55:00;;;;;;;8.70;7.05;;;;;;;17.21;58.86;96364.44;1222796;75;2945491;-75
2023/10/19 08:57:34;;;;;;;8.20;7.00;;;;;;;16.75;61.30;96369.16;1223949;75;2922219;-77
2023/10/19 09:00:10;;;;;;;7.10;6.20;;;;;;;17.28;60.38;96359.47;1224193;75;2925469;-76
2023/10/19 09:02:43;;;;;;;6.85;6.15;;;;;;;17.02;61.02;96370.31;1223947;75;2928998;-74
2023/10/19 09:05:22;;;;;;;8.90;6.90;;;;;;;16.29;63.61;96358.69;1223065;75;2932543;-73
2023/10/19 09:07:59;;;;;;;9.60;5.85;;;;;;;16.76;62.99;96360.31;1224719;75;2922713;-77
2023/10/19 09:10:36;;;;;;;6.40;5.10;;;;;;;17.23;62.27;96361.88;1223746;75;2922927;-74
2023/10/19 09:13:12;;;;;;;14.35;8.20;;;;;;;16.30;64.49;96357.38;1222076;75;2925457;-76
2023/10/19 09:15:45;;;;;;;14.10;8.50;;;;;;;15.69;66.30;96360.53;1224208;75;2930687;-76
2023/10/19 09:18:19;;;;;;;11.70;8.25;;;;;;;16.33;65.39;96358.31;1224067;75;2924102;-74
2023/10/19 09:21:01;;;;;;;10.95;8.10;;;;;;;15.71;66.37;96349.75;1223060;75;2920153;-78
2023/10/19 09:23:38;;;;;;;11.15;7.50;;;;;;;15.62;68.90;96346.72;1224346;75;2923701;-76
2023/10/19 09:26:12;;;;;;;11.60;8.40;;;;;;;15.13;71.69;96348.19;1224334;75;2922078;-77
2023/10/19 09:28:45;;;;;;;7.00;6.10;;;;;;;16.00;70.48;96329.66;1223721;75;2923879;-74
2023/10/19 09:31:20;;;;;;;7.95;5.25;;;;;;;16.88;66.42;96343.38;1224168;75;2922883;-74
2023/10/19 09:33:54;;;;;;;5.75;4.00;;;;;;;17.50;64.86;96331.06;1219593;75;3035159;-75
2023/10/19 09:36:29;;;;;;;8.10;6.65;;;;;;;17.81;66.22;96331.03;1224426;75;2919671;-74
2023/10/19 09:39:12;;;;;;;7.10;5.85;;;;;;;17.64;66.61;96326.78;1223381;75;2923394;-72
2023/10/19 09:41:45;;;;;;;9.15;5.70;;;;;;;18.79;63.64;96331.19;1221711;75;3084290;-72
2023/10/19 09:44:24;;;;;;;7.50;6.50;;;;;;;18.78;64.37;96326.22;1224777;75;2922747;-74
2023/10/19 09:47:00;;;;;;;8.30;6.20;;;;;;;19.68;60.36;96323.31;1224967;75;2923889;-76
2023/10/19 09:49:33;;;;;;;8.05;6.85;;;;;;;18.25;63.10;96314.09;1222976;75;2923952;-72
2023/10/19 09:52:06;;;;;;;8.10;6.60;;;;;;;18.36;63.36;96313.66;1223324;75;2950324;-75
2023/10/19 09:54:57;;;;;;;6.40;4.75;;;;;;;19.46;61.22;96316.63;1224961;75;2923828;-74
2023/10/19 09:57:38;;;;;;;7.35;5.55;;;;;;;19.33;60.34;96317.66;1224806;75;2923233;-75
2023/10/19 10:00:14;;;;;;;7.20;5.85;;;;;;;20.11;59.47;96309.34;1218916;75;3268568;-76
2023/10/19 10:02:47;;;;;;;5.90;4.65;;;;;;;20.10;58.68;96307.84;1225789;75;2916504;-77
2023/10/19 10:05:50;;;;;;;5.30;4.50;;;;;;;21.21;57.02;96298.38;1225593;75;2929891;-74
2023/10/19 10:08:36;;;;;;;5.35;4.70;;;;;;;19.97;59.13;96304.09;1225354;75;2918817;-75
2023/10/19 10:11:26;;;;;;;6.60;4.10;;;;;;;20.35;58.81;96296.63;1225049;75;2916966;-78
2023/10/19 10:14:01;;;;;;;5.40;3.95;;;;;;;20.75;59.51;96287.94;1224981;75;2922024;-78
2023/10/19 10:16:37;;;;;;;6.35;3.25;;;;;;;20.89;58.73;96285.50;1222106;75;2934464;-77
2023/10/19 10:19:10;;;;;;;4.80;3.55;;;;;;;21.14;58.10;96268.59;1223226;75;2922612;-77
2023/10/19 10:21:43;;;;;;;4.55;4.15;;;;;;;19.97;59.94;96261.72;1223878;75;2923962;-75
2023/10/19 10:24:17;;;;;;;6.40;4.35;;;;;;;19.39;62.11;96266.75;1221615;75;3000332;-75
2023/10/19 10:27:05;;;;;;;6.75;5.25;;;;;;;18.94;65.04;96270.09;1224158;67;2936336;-75
2023/10/19 10:29:37;;;;;;;8.55;3.85;;;;;;;19.44;64.35;96265.78;1224207;75;2917675;-74
2023/10/19 10:32:12;;;;;;;6.00;4.30;;;;;;;18.91;65.92;96259.41;1222973;75;2921430;-76
2023/10/19 10:34:49;;;;;;;5.40;4.35;;;;;;;18.58;67.41;96264.97;1223193;75;2923430;-75
2023/10/19 10:37:21;;;;;;;7.20;4.70;;;;;;;17.98;70.13;96253.63;1224063;75;2926247;-74
2023/10/19 10:40:03;;;;;;;5.40;3.60;;;;;;;18.82;67.35;96251.69;1223871;75;2926495;-75
2023/10/19 10:42:41;;;;;;;4.15;2.85;;;;;;;18.87;67.52;96250.75;1224021;75;2926022;-73
2023/10/19 10:45:24;;;;;;;5.10;3.30;;;;;;;18.47;68.55;96248.75;1222972;75;2940714;-73
2023/10/19 10:47:56;;;;;;;4.40;3.00;;;;;;;19.05;68.71;96243.19;1224172;75;2924311;-75
2023/10/19 10:50:29;;;;;;;6.40;3.20;;;;;;;18.34;71.82;96247.00;1223910;75;2917793;-77
2023/10/19 10:53:02;;;;;;;3.70;2.85;;;;;;;18.65;70.16;96242.00;1224538;75;2924349;-76
2023/10/19 10:55:34;;;;;;;6.10;4.65;;;;;;;17.51;77.25;96230.16;1222814;75;2925990;-74
2023/10/19 10:58:10;;;;;;;4.95;4.00;;;;;;;17.93;76.79;96223.41;1224739;75;2923933;-77
2023/10/19 11:00:48;;;;;;;5.25;4.25;;;;;;;17.44;78.88;96228.88;1224314;75;2924144;-79
2023/10/19 11:03:21;;;;;;;6.80;5.30;;;;;;;17.35;81.88;96237.75;1224133;75;2918827;-74
2023/10/19 11:05:54;;;;;;;8.25;5.10;;;;;;;17.11;85.46;96224.53;1224722;75;2922340;-75
2023/10/19 11:08:29;;;;;;;8.80;4.85;;;;;;;17.23;84.10;96218.03;1224934;75;2923519;-75
2023/10/19 11:11:10;;;;;;;5.85;4.15;;;;;;;17.42;84.35;96214.88;1223860;75;2936278;-76
2023/10/19 11:13:45;;;;;;;4.45;3.60;;;;;;;17.97;82.60;96215.44;1224344;75;2919953;-75
2023/10/19 11:16:26;;;;;;;4.00;3.05;;;;;;;18.12;80.24;96209.81;1225060;75;2921292;-80
2023/10/19 11:18:59;;;;;;;5.40;3.20;;;;;;;18.44;79.46;96200.75;1225037;75;2925150;-77
2023/10/19 11:21:32;;;;;;;2.70;2.20;;;;;;;18.52;78.85;96195.16;1224618;75;2926051;-79
2023/10/19 11:24:05;;;;;;;2.50;2.05;;;;;;;18.97;76.79;96184.28;1219851;75;3125836;-74
2023/10/19 11:26:44;;;;;;;3.25;2.75;;;;;;;18.81;75.50;96175.34;1223491;75;2948716;-72
2023/10/19 11:29:22;;;;;;;3.45;2.25;;;;;;;19.30;74.52;96173.78;1224220;75;2924469;-77
2023/10/19 11:32:04;;;;;;;3.30;2.40;;;;;;;19.46;74.83;96175.09;1219234;75;3064095;-73
2023/10/19 11:34:38;;;;;;;3.60;2.55;;;;;;;19.22;74.76;96170.34;1225051;75;2921039;-74
2023/10/19 11:37:11;;;;;;;5.00;3.50;;;;;;;19.12;75.89;96167.50;1221070;75;2946101;-75
2023/10/19 11:39:45;;;;;;;5.40;3.70;;;;;;;19.58;73.90;96167.00;1224477;75;2920429;-74
2023/10/19 11:42:18;;;;;;;3.85;2.60;;;;;;;19.96;71.64;96166.53;1225080;75;2920596;-74
2023/10/19 11:44:54;;;;;;;2.60;2.30;;;;;;;19.92;73.15;96157.88;1223413;75;2956092;-72
2023/10/19 11:47:26;;;;;;;8.90;2.55;;;;;;;20.41;71.35;96149.78;1224744;75;2917103;-74